Time;durP1;ratioP1;P1;durP2;ratioP2;P2;SDS_P1;SDS_P2;PMS_P1;PMS_P2;Temp;Humidity;BMP_temperature;BMP_pressure;BME280_temperature;BME280_humidity;BME280_pressure;Samples;Min_cycle;Max_cycle;Signal;HPM_P1;HPM_P2
2023/07/03 00:01:41;;;;;;;18.37;16.87;;;17.80;99.90;;;;;;4933908;29;20496;-72
2023/07/03 00:04:10;;;;;;;17.70;15.80;;;17.80;99.90;;;;;;4935948;29;20544;-72
2023/07/03 00:06:37;;;;;;;16.67;15.30;;;17.90;99.90;;;;;;4936134;29;20457;-73
2023/07/03 00:09:05;;;;;;;18.60;16.60;;;17.80;99.90;;;;;;4935899;29;20548;-73
2023/07/03 00:11:32;;;;;;;18.10;16.60;;;17.90;99.90;;;;;;4935784;29;20603;-74
2023/07/03 00:13:58;;;;;;;17.43;16.00;;;17.90;99.90;;;;;;4935740;29;20997;-73
2023/07/03 00:16:25;;;;;;;18.97;17.37;;;17.90;99.90;;;;;;4935376;29;20480;-74
2023/07/03 00:18:53;;;;;;;19.67;17.80;;;17.90;99.90;;;;;;4935669;29;20450;-73
2023/07/03 00:21:20;;;;;;;18.73;16.93;;;17.80;99.90;;;;;;4935652;29;20497;-73
2023/07/03 00:23:46;;;;;;;17.27;15.87;;;17.80;99.90;;;;;;4935665;29;20512;-73
2023/07/03 00:26:13;;;;;;;20.00;18.30;;;17.70;99.90;;;;;;4935694;29;20536;-72
2023/07/03 00:28:40;;;;;;;19.60;17.90;;;17.70;99.90;;;;;;4935633;29;20458;-74
2023/07/03 00:31:06;;;;;;;21.13;19.00;;;17.60;99.90;;;;;;4935633;29;20461;-73
2023/07/03 00:33:33;;;;;;;18.37;16.77;;;17.60;99.90;;;;;;4935740;29;20525;-73
2023/07/03 00:36:01;;;;;;;18.60;16.70;;;17.60;99.90;;;;;;4935133;29;21050;-74
2023/07/03 00:38:28;;;;;;;18.30;16.80;;;17.60;99.90;;;;;;4935349;29;21185;-74
2023/07/03 00:40:55;;;;;;;19.77;17.77;;;17.60;99.90;;;;;;4935443;29;20485;-74
2023/07/03 00:43:22;;;;;;;21.37;19.37;;;17.60;99.90;;;;;;4935234;29;20820;-73
2023/07/03 00:45:48;;;;;;;19.03;17.23;;;17.60;99.90;;;;;;4935165;29;20897;-73
2023/07/03 00:48:15;;;;;;;22.30;16.60;;;17.70;99.90;;;;;;4935458;29;20521;-74
2023/07/03 00:50:42;;;;;;;19.43;17.83;;;17.70;99.90;;;;;;4935085;29;20465;-74
2023/07/03 00:53:11;;;;;;;18.77;17.27;;;17.70;99.90;;;;;;4935266;29;20502;-74
2023/07/03 00:55:38;;;;;;;20.20;18.67;;;17.80;99.90;;;;;;4935291;29;20520;-73
2023/07/03 00:58:05;;;;;;;18.97;17.27;;;17.70;99.90;;;;;;4934978;29;20546;-73
2023/07/03 01:00:39;;;;;;;19.23;17.53;;;17.70;99.90;;;;;;4934856;29;20501;-74
2023/07/03 01:03:11;;;;;;;21.00;18.80;;;17.70;99.90;;;;;;4934939;29;20467;-74
2023/07/03 01:05:43;;;;;;;17.50;16.17;;;17.70;99.90;;;;;;4934652;29;20948;-73
2023/07/03 01:08:11;;;;;;;22.10;19.97;;;17.80;99.90;;;;;;4934956;29;20594;-73
2023/07/03 01:10:40;;;;;;;19.47;17.50;;;17.80;99.90;;;;;;4934791;29;20453;-73
2023/07/03 01:13:11;;;;;;;25.67;19.40;;;17.80;99.90;;;;;;4934709;29;20557;-73
2023/07/03 01:15:41;;;;;;;22.93;19.07;;;17.90;99.90;;;;;;4924192;29;20501;-73
2023/07/03 01:18:10;;;;;;;20.50;18.73;;;17.90;99.90;;;;;;4915737;29;20453;-74
2023/07/03 01:20:40;;;;;;;19.63;17.60;;;18.00;99.90;;;;;;4915511;29;20493;-74
2023/07/03 01:23:15;;;;;;;18.23;16.53;;;18.10;99.90;;;;;;4915729;29;20975;-73
2023/07/03 01:25:46;;;;;;;20.80;19.20;;;18.10;99.90;;;;;;4915694;29;20521;-72
2023/07/03 01:28:15;;;;;;;18.60;16.90;;;18.10;99.90;;;;;;4915590;29;20454;-72
2023/07/03 01:30:43;;;;;;;17.40;16.07;;;18.20;99.90;;;;;;4915614;29;20856;-73
2023/07/03 01:33:17;;;;;;;16.90;15.77;;;18.20;99.90;;;;;;4915452;29;20461;-73
2023/07/03 01:35:46;;;;;;;19.27;17.57;;;18.30;99.90;;;;;;4915568;29;20463;-73
2023/07/03 01:38:13;;;;;;;17.90;16.63;;;18.30;99.90;;;;;;4915409;29;20537;-72
2023/07/03 01:40:41;;;;;;;17.77;16.43;;;18.30;99.90;;;;;;4915347;29;20866;-73
2023/07/03 01:43:11;;;;;;;20.90;16.83;;;18.40;99.90;;;;;;4915326;29;20493;-72
2023/07/03 01:45:41;;;;;;;18.23;16.53;;;18.40;99.90;;;;;;4915093;29;20462;-72
2023/07/03 01:48:09;;;;;;;18.30;16.53;;;18.40;99.90;;;;;;4915124;29;20490;-72
2023/07/03 01:50:37;;;;;;;18.17;16.77;;;18.40;99.90;;;;;;4915297;29;20529;-72
2023/07/03 01:53:11;;;;;;;19.03;17.50;;;18.40;99.90;;;;;;4915331;29;20951;-71
2023/07/03 01:55:43;;;;;;;18.30;16.60;;;18.40;99.90;;;;;;4915162;29;20521;-72
2023/07/03 01:58:22;;;;;;;18.47;16.77;;;18.30;99.90;;;;;;4915007;29;20955;-71
2023/07/03 02:00:51;;;;;;;19.47;17.67;;;18.30;99.90;;;;;;4914955;29;20494;-72
2023/07/03 02:03:24;;;;;;;18.63;17.00;;;18.30;99.90;;;;;;4915062;29;20454;-72
2023/07/03 02:05:52;;;;;;;19.17;17.63;;;18.40;99.90;;;;;;4915080;29;20492;-72
2023/07/03 02:08:21;;;;;;;19.87;17.57;;;18.40;99.90;;;;;;4914857;29;20949;-72
2023/07/03 02:10:49;;;;;;;18.40;17.00;;;18.40;99.90;;;;;;4914755;29;20454;-72
2023/07/03 02:13:17;;;;;;;19.20;17.47;;;18.40;99.90;;;;;;4914933;29;20458;-72
2023/07/03 02:15:43;;;;;;;20.23;16.30;;;18.40;99.90;;;;;;4913963;29;20493;-72
2023/07/03 02:18:17;;;;;;;19.30;17.70;;;18.40;99.90;;;;;;4914832;29;20454;-73
2023/07/03 02:20:44;;;;;;;17.33;16.03;;;18.40;99.90;;;;;;4914861;29;20477;-72
2023/07/03 02:23:11;;;;;;;19.30;17.50;;;18.50;99.90;;;;;;4914851;29;20450;-72
2023/07/03 02:25:37;;;;;;;18.87;17.10;;;18.50;99.90;;;;;;4914656;29;20454;-72
2023/07/03 02:28:05;;;;;;;17.47;16.13;;;18.50;99.90;;;;;;4914514;29;20961;-73
2023/07/03 02:30:33;;;;;;;18.73;17.13;;;18.60;99.90;;;;;;4914626;29;20465;-73
2023/07/03 02:32:59;;;;;;;17.60;16.30;;;18.60;99.90;;;;;;4914521;29;20845;-72
2023/07/03 02:35:26;;;;;;;16.80;15.70;;;18.60;99.90;;;;;;4914615;29;20462;-72
2023/07/03 02:37:53;;;;;;;19.40;16.40;;;18.60;99.90;;;;;;4914721;29;20841;-72
2023/07/03 02:40:19;;;;;;;17.43;16.23;;;18.70;99.90;;;;;;4914582;29;20891;-72
2023/07/03 02:42:46;;;;;;;20.13;18.53;;;18.70;99.90;;;;;;4914499;29;20498;-72
2023/07/03 02:45:13;;;;;;;17.87;16.67;;;18.70;99.90;;;;;;4914333;29;20862;-72
2023/07/03 02:47:40;;;;;;;17.17;15.40;;;18.60;99.90;;;;;;4914345;29;21036;-72
2023/07/03 02:50:08;;;;;;;19.63;17.53;;;18.70;99.90;;;;;;4914482;29;20994;-73
2023/07/03 02:52:35;;;;;;;17.27;15.67;;;18.70;99.90;;;;;;4914426;29;20453;-72
2023/07/03 02:55:01;;;;;;;18.10;16.73;;;18.70;99.90;;;;;;4914405;29;20462;-72
2023/07/03 02:57:28;;;;;;;17.37;15.70;;;18.70;99.90;;;;;;4914625;29;20560;-72
2023/07/03 02:59:55;;;;;;;16.70;15.50;;;18.70;99.90;;;;;;4914371;29;20992;-72
2023/07/03 03:02:22;;;;;;;18.20;16.60;;;18.60;99.90;;;;;;4914567;29;20882;-72
2023/07/03 03:04:50;;;;;;;18.07;16.37;;;18.50;99.90;;;;;;4914459;29;20458;-72
2023/07/03 03:07:17;;;;;;;19.40;18.17;;;18.50;99.90;;;;;;4914296;29;20466;-72
2023/07/03 03:09:43;;;;;;;17.27;16.07;;;18.50;99.90;;;;;;4914271;29;20513;-72
2023/07/03 03:12:10;;;;;;;26.23;17.73;;;18.50;99.90;;;;;;4914454;29;20455;-72
2023/07/03 03:14:37;;;;;;;20.00;18.47;;;18.50;99.90;;;;;;4914024;29;20515;-72
2023/07/03 03:17:04;;;;;;;18.80;17.03;;;18.40;99.90;;;;;;4914516;29;20537;-73
2023/07/03 03:19:31;;;;;;;19.50;18.00;;;18.30;99.90;;;;;;4914287;29;20458;-74
2023/07/03 03:21:59;;;;;;;21.23;19.10;;;18.30;99.90;;;;;;4914115;29;20541;-73
2023/07/03 03:24:26;;;;;;;19.07;17.40;;;18.30;99.90;;;;;;4914287;29;20454;-73
2023/07/03 03:26:53;;;;;;;19.57;18.00;;;18.30;99.90;;;;;;4914687;29;20517;-73
2023/07/03 03:29:20;;;;;;;19.37;17.77;;;18.30;99.90;;;;;;4917607;29;20992;-73
2023/07/03 03:31:46;;;;;;;19.13;17.70;;;18.40;99.90;;;;;;4917812;29;20513;-73
2023/07/03 03:34:13;;;;;;;17.93;16.63;;;18.40;99.90;;;;;;4917495;29;20454;-73
2023/07/03 03:36:40;;;;;;;19.60;17.90;;;18.40;99.90;;;;;;4917581;29;20454;-73
2023/07/03 03:39:08;;;;;;;20.23;18.50;;;18.40;99.90;;;;;;4917691;29;20461;-73
2023/07/03 03:41:35;;;;;;;19.30;17.70;;;18.40;99.90;;;;;;4917420;29;20497;-74
2023/07/03 03:44:02;;;;;;;20.10;18.10;;;18.50;99.90;;;;;;4917428;29;20960;-74
2023/07/03 03:46:28;;;;;;;17.80;16.43;;;18.40;99.90;;;;;;4917360;29;20493;-74
2023/07/03 03:48:55;;;;;;;20.53;18.47;;;18.50;99.90;;;;;;4917291;29;20458;-74
2023/07/03 03:51:22;;;;;;;18.20;16.90;;;18.50;99.90;;;;;;4917315;29;20465;-73
2023/07/03 03:53:49;;;;;;;19.23;17.80;;;18.50;99.90;;;;;;4919059;29;20462;-73
2023/07/03 03:56:19;;;;;;;21.50;17.97;;;18.60;99.90;;;;;;4920189;29;20450;-71
2023/07/03 03:58:46;;;;;;;18.40;17.00;;;18.60;99.90;;;;;;4921144;29;20458;-75
2023/07/03 04:01:12;;;;;;;18.30;16.80;;;18.70;99.90;;;;;;4918303;29;20977;-72
2023/07/03 04:03:39;;;;;;;17.17;15.97;;;18.80;99.90;;;;;;4917008;29;20783;-72
2023/07/03 04:06:06;;;;;;;19.90;17.90;;;18.80;99.90;;;;;;4917143;29;20466;-73
2023/07/03 04:08:33;;;;;;;17.33;15.93;;;18.80;99.90;;;;;;4917075;29;20945;-73
2023/07/03 04:11:00;;;;;;;18.53;16.90;;;18.80;99.90;;;;;;4916745;29;20454;-73
2023/07/03 04:13:28;;;;;;;19.37;17.63;;;18.90;99.90;;;;;;4916632;29;20474;-72
2023/07/03 04:16:00;;;;;;;18.00;16.50;;;18.80;99.90;;;;;;4929079;29;20477;-73
2023/07/03 04:18:27;;;;;;;19.53;17.67;;;18.90;99.90;;;;;;4935665;29;20458;-74
2023/07/03 04:20:55;;;;;;;19.00;17.30;;;18.90;99.90;;;;;;4935542;29;20824;-74
2023/07/03 04:23:21;;;;;;;18.97;17.00;;;18.90;99.90;;;;;;4935515;29;20545;-74
2023/07/03 04:25:49;;;;;;;19.20;17.60;;;18.90;99.90;;;;;;4935384;29;21023;-74
2023/07/03 04:28:17;;;;;;;18.83;17.03;;;19.00;99.90;;;;;;4935330;29;20485;-73
2023/07/03 04:30:45;;;;;;;19.90;18.20;;;19.00;99.90;;;;;;4935298;29;20998;-74
2023/07/03 04:33:12;;;;;;;18.07;16.67;;;19.00;99.90;;;;;;4935323;29;20446;-74
2023/07/03 04:35:39;;;;;;;18.17;16.77;;;19.10;99.90;;;;;;4935461;29;20464;-73
2023/07/03 04:38:06;;;;;;;19.97;18.47;;;19.10;99.90;;;;;;4935411;29;20532;-74
2023/07/03 04:40:33;;;;;;;19.33;16.53;;;19.10;99.90;;;;;;4934812;29;20464;-75
2023/07/03 04:42:59;;;;;;;18.57;17.27;;;19.10;99.90;;;;;;4935249;29;20500;-75
2023/07/03 04:45:27;;;;;;;17.43;16.10;;;19.20;99.90;;;;;;4935296;29;20521;-73
2023/07/03 04:47:55;;;;;;;17.47;16.30;;;19.20;99.90;;;;;;4935142;29;20462;-74
2023/07/03 04:50:24;;;;;;;17.80;16.40;;;19.30;99.90;;;;;;4935229;29;20472;-74
2023/07/03 04:52:52;;;;;;;17.30;16.10;;;19.30;99.90;;;;;;4935149;29;20453;-73
2023/07/03 04:55:19;;;;;;;18.50;17.10;;;19.40;99.90;;;;;;4938317;29;20464;-72
2023/07/03 04:57:46;;;;;;;17.33;15.83;;;19.50;99.80;;;;;;4937646;29;20528;-73
2023/07/03 05:00:15;;;;;;;17.57;16.17;;;19.50;99.40;;;;;;4930852;29;20545;-72
2023/07/03 05:02:43;;;;;;;18.17;16.50;;;19.50;99.60;;;;;;4937031;29;20489;-73
2023/07/03 05:05:11;;;;;;;16.63;15.43;;;19.60;99.40;;;;;;4935152;29;20485;-72
2023/07/03 05:07:38;;;;;;;19.40;17.30;;;19.60;99.10;;;;;;4934967;29;20484;-73
2023/07/03 05:10:07;;;;;;;18.43;17.03;;;19.60;99.10;;;;;;4934958;29;20469;-73
2023/07/03 05:12:34;;;;;;;17.90;16.40;;;19.60;99.20;;;;;;4934809;29;20470;-74
2023/07/03 05:15:01;;;;;;;18.50;16.73;;;19.60;99.20;;;;;;4934353;29;20506;-74
2023/07/03 05:17:27;;;;;;;18.83;17.13;;;19.70;99.10;;;;;;4934845;29;20462;-75
2023/07/03 05:19:54;;;;;;;17.37;15.97;;;19.80;98.80;;;;;;4934560;29;20461;-73
2023/07/03 05:22:22;;;;;;;17.20;15.60;;;19.90;98.60;;;;;;4934510;29;20493;-73
2023/07/03 05:24:50;;;;;;;18.83;17.40;;;20.10;98.20;;;;;;4934625;29;20832;-74
2023/07/03 05:27:17;;;;;;;17.73;16.50;;;20.30;97.90;;;;;;4934424;29;20500;-74
2023/07/03 05:29:43;;;;;;;16.80;15.60;;;20.30;97.90;;;;;;4934148;29;20533;-74
2023/07/03 05:32:11;;;;;;;18.23;16.63;;;20.40;97.70;;;;;;4934445;29;20469;-74
2023/07/03 05:34:38;;;;;;;16.93;15.93;;;20.60;97.40;;;;;;4934339;29;20558;-74
2023/07/03 05:37:05;;;;;;;18.53;17.03;;;20.90;96.80;;;;;;4934129;29;20974;-75
2023/07/03 05:39:34;;;;;;;17.83;16.53;;;20.90;96.40;;;;;;4934252;29;20461;-74
2023/07/03 05:42:01;;;;;;;17.90;16.50;;;21.20;96.20;;;;;;4934031;29;20501;-74
2023/07/03 05:44:28;;;;;;;19.40;17.93;;;21.30;96.00;;;;;;4934652;29;20453;-73
2023/07/03 05:46:55;;;;;;;18.13;16.63;;;21.40;95.50;;;;;;4936038;29;20462;-73
2023/07/03 05:49:22;;;;;;;17.33;16.03;;;21.50;95.20;;;;;;4934240;29;20453;-74
2023/07/03 05:51:48;;;;;;;17.47;15.77;;;21.70;94.90;;;;;;4933151;29;20464;-74
2023/07/03 05:54:16;;;;;;;17.57;15.97;;;21.60;95.00;;;;;;4934061;29;20453;-73
2023/07/03 05:56:55;;;;;;;16.17;14.93;;;21.70;94.50;;;;;;4934214;29;20461;-73
2023/07/03 05:59:22;;;;;;;17.27;16.07;;;21.70;94.70;;;;;;4934057;29;20500;-73
2023/07/03 06:01:49;;;;;;;16.37;15.17;;;21.70;94.40;;;;;;4933705;29;20557;-75
2023/07/03 06:04:15;;;;;;;15.80;14.90;;;21.90;94.40;;;;;;4933622;29;20553;-75
2023/07/03 06:06:42;;;;;;;18.07;16.57;;;22.00;94.20;;;;;;4934091;29;20516;-75
2023/07/03 06:09:09;;;;;;;15.80;14.87;;;22.10;94.20;;;;;;4933835;29;20457;-79
2023/07/03 06:11:36;;;;;;;15.83;14.60;;;22.20;93.60;;;;;;4933662;29;20449;-76
2023/07/03 06:14:04;;;;;;;17.13;15.60;;;22.50;93.30;;;;;;4933635;29;20497;-76
2023/07/03 06:16:34;;;;;;;16.90;15.47;;;22.60;93.10;;;;;;4933442;29;20913;-75
2023/07/03 06:19:01;;;;;;;16.60;15.03;;;22.70;92.70;;;;;;4933692;29;20461;-76
2023/07/03 06:21:27;;;;;;;16.50;14.70;;;22.70;93.00;;;;;;4933797;29;20488;-76
2023/07/03 06:23:54;;;;;;;14.80;13.80;;;22.60;92.70;;;;;;4933334;29;20497;-76
2023/07/03 06:26:21;;;;;;;16.10;14.50;;;22.60;92.70;;;;;;4933670;29;20453;-75
2023/07/03 06:28:48;;;;;;;15.63;14.60;;;22.60;92.80;;;;;;4933593;29;20809;-76
2023/07/03 06:34:10;;;;;;;16.10;14.87;;;22.60;92.90;;;;;;4929796;29;20440;-78
2023/07/03 06:36:37;;;;;;;15.97;14.77;;;22.60;92.50;;;;;;4933216;29;20461;-79
2023/07/03 06:39:05;;;;;;;18.50;16.73;;;22.70;92.60;;;;;;4933744;29;20457;-78
2023/07/03 06:41:34;;;;;;;17.77;16.60;;;22.60;92.50;;;;;;4933977;29;20492;-78
2023/07/03 06:44:00;;;;;;;16.30;14.87;;;22.60;92.60;;;;;;4933314;29;20946;-82
2023/07/03 06:46:29;;;;;;;16.07;14.97;;;22.60;92.50;;;;;;4933783;29;20457;-76
2023/07/03 06:48:56;;;;;;;17.07;15.57;;;22.50;92.80;;;;;;4934276;29;20458;-76
2023/07/03 06:51:24;;;;;;;16.50;15.10;;;22.40;92.60;;;;;;4933167;29;20461;-76
2023/07/03 06:53:51;;;;;;;15.37;14.37;;;22.50;92.90;;;;;;4931662;29;20449;-75
2023/07/03 06:56:19;;;;;;;16.00;14.90;;;22.60;92.40;;;;;;4933458;29;20936;-75
2023/07/03 06:58:47;;;;;;;15.67;14.27;;;22.80;92.50;;;;;;4933385;29;20516;-75
2023/07/03 07:01:15;;;;;;;16.77;15.57;;;23.10;92.60;;;;;;4933320;29;20460;-75
2023/07/03 07:03:43;;;;;;;15.17;13.80;;;23.40;91.20;;;;;;4936651;29;20504;-76
2023/07/03 07:06:11;;;;;;;17.73;16.43;;;23.50;91.00;;;;;;4936815;29;20491;-75
2023/07/03 07:08:39;;;;;;;15.87;14.97;;;23.70;90.20;;;;;;4936865;29;20466;-75
2023/07/03 07:11:09;;;;;;;17.33;16.13;;;23.70;90.20;;;;;;4937038;29;20464;-75
2023/07/03 07:13:36;;;;;;;15.27;14.30;;;24.00;90.10;;;;;;4937222;29;20556;-76
2023/07/03 07:16:03;;;;;;;16.50;15.30;;;24.40;90.10;;;;;;4936535;29;20532;-76
2023/07/03 07:18:30;;;;;;;15.57;14.40;;;24.70;89.10;;;;;;4936713;29;20925;-76
2023/07/03 07:21:00;;;;;;;16.20;14.67;;;24.50;88.00;;;;;;4936899;29;20461;-75
2023/07/03 07:23:27;;;;;;;15.77;14.70;;;24.80;86.50;;;;;;4936965;29;20485;-76
2023/07/03 07:25:54;;;;;;;21.93;15.90;;;25.50;83.90;;;;;;4936657;29;20655;-76
2023/07/03 07:28:21;;;;;;;16.13;14.87;;;25.70;81.50;;;;;;4936949;29;20469;-76
2023/07/03 07:30:48;;;;;;;16.17;14.97;;;25.60;80.80;;;;;;4936686;29;20505;-76
2023/07/03 07:33:15;;;;;;;15.53;14.43;;;25.70;80.10;;;;;;4936619;29;20488;-75
2023/07/03 07:35:42;;;;;;;17.13;15.80;;;26.00;79.10;;;;;;4936964;29;20453;-76
2023/07/03 07:38:10;;;;;;;16.80;15.70;;;25.60;78.60;;;;;;4936497;29;20971;-75
2023/07/03 07:40:37;;;;;;;17.00;15.77;;;25.50;79.40;;;;;;4936412;29;21033;-75
2023/07/03 07:43:04;;;;;;;16.30;14.97;;;25.50;78.20;;;;;;4936658;29;20859;-75
2023/07/03 07:45:31;;;;;;;15.97;14.73;;;25.10;79.90;;;;;;4937463;29;20524;-76
2023/07/03 07:47:58;;;;;;;16.43;14.87;;;24.60;82.10;;;;;;4936265;29;20528;-76
2023/07/03 07:50:25;;;;;;;15.77;14.43;;;24.20;83.10;;;;;;4936366;29;20512;-76
2023/07/03 07:52:51;;;;;;;15.80;14.57;;;24.10;84.20;;;;;;4936080;29;20921;-76
2023/07/03 07:55:19;;;;;;;16.87;15.57;;;23.90;84.80;;;;;;4936360;29;20560;-76
2023/07/03 07:57:46;;;;;;;15.40;14.30;;;23.80;85.50;;;;;;4936297;29;20480;-75
2023/07/03 08:00:14;;;;;;;15.10;13.83;;;23.70;86.30;;;;;;4936072;29;20524;-76
2023/07/03 08:02:41;;;;;;;14.97;14.13;;;23.70;86.10;;;;;;4935899;29;20489;-76
2023/07/03 08:05:09;;;;;;;16.13;15.07;;;23.40;86.80;;;;;;4935959;29;20462;-76
2023/07/03 08:07:36;;;;;;;16.40;15.30;;;23.30;87.70;;;;;;4936046;29;20457;-76
2023/07/03 08:10:02;;;;;;;16.17;15.17;;;23.20;88.60;;;;;;4936019;29;20454;-76
2023/07/03 08:12:31;;;;;;;17.67;16.27;;;23.30;88.90;;;;;;4936058;29;20457;-75
2023/07/03 08:14:57;;;;;;;18.77;16.83;;;23.70;89.40;;;;;;4934498;29;20989;-76
2023/07/03 08:17:24;;;;;;;17.87;16.57;;;24.00;88.60;;;;;;4935631;29;20453;-75
2023/07/03 08:19:51;;;;;;;18.03;16.43;;;24.10;88.20;;;;;;4935753;29;20453;-76
2023/07/03 08:22:18;;;;;;;16.43;15.00;;;25.20;85.60;;;;;;4935538;29;20464;-75
2023/07/03 08:24:45;;;;;;;16.00;14.90;;;25.90;80.80;;;;;;4935692;29;20493;-76
2023/07/03 08:27:12;;;;;;;17.40;16.20;;;26.00;81.20;;;;;;4935658;29;20508;-75
2023/07/03 08:29:40;;;;;;;16.60;15.43;;;25.80;80.80;;;;;;4935597;29;20517;-76
2023/07/03 08:32:10;;;;;;;17.67;16.37;;;25.80;81.10;;;;;;4935510;29;20458;-76
2023/07/03 08:34:37;;;;;;;17.77;16.43;;;25.80;81.90;;;;;;4935571;29;20448;-76
2023/07/03 08:37:05;;;;;;;18.30;15.90;;;25.10;82.60;;;;;;4935261;29;20948;-76
2023/07/03 08:39:32;;;;;;;16.67;15.47;;;24.60;86.60;;;;;;4935310;29;20466;-77
2023/07/03 08:42:03;;;;;;;16.00;14.70;;;24.50;86.10;;;;;;4935655;29;20831;-75
2023/07/03 08:44:30;;;;;;;17.70;16.30;;;24.60;86.30;;;;;;4943596;29;20540;-76
2023/07/03 08:47:01;;;;;;;17.20;15.80;;;24.30;87.00;;;;;;4950566;29;20468;-76
2023/07/03 08:49:29;;;;;;;18.50;16.80;;;24.00;88.60;;;;;;4946041;29;20453;-76
2023/07/03 08:52:00;;;;;;;17.63;15.73;;;24.30;88.70;;;;;;4946602;29;20454;-76
2023/07/03 08:54:30;;;;;;;15.97;15.07;;;24.00;87.80;;;;;;4945350;29;20501;-76
2023/07/03 08:56:58;;;;;;;17.33;16.03;;;23.70;89.00;;;;;;4941049;29;20453;-76
2023/07/03 08:59:25;;;;;;;17.97;16.63;;;23.80;89.60;;;;;;4935991;29;20520;-76
2023/07/03 09:01:55;;;;;;;17.03;15.80;;;24.70;87.10;;;;;;4935489;29;20956;-76
2023/07/03 09:04:35;;;;;;;17.10;15.80;;;25.30;84.90;;;;;;4935194;29;20973;-76
2023/07/03 09:07:04;;;;;;;17.43;16.23;;;25.20;84.90;;;;;;4934795;29;20979;-76
2023/07/03 09:09:37;;;;;;;16.63;15.27;;;25.10;84.00;;;;;;4935020;29;20694;-76
2023/07/03 09:12:13;;;;;;;15.57;14.43;;;24.50;84.70;;;;;;4935057;29;20462;-75
2023/07/03 09:14:46;;;;;;;16.07;15.13;;;24.10;86.50;;;;;;4934487;29;20519;-76
2023/07/03 09:17:13;;;;;;;17.00;15.83;;;23.80;87.00;;;;;;4934704;29;21050;-76
2023/07/03 09:19:46;;;;;;;17.67;16.40;;;23.80;88.60;;;;;;4934785;29;20457;-76
2023/07/03 09:22:25;;;;;;;15.67;14.57;;;24.00;87.80;;;;;;4934528;29;20465;-76
2023/07/03 09:24:56;;;;;;;16.47;15.13;;;24.10;86.60;;;;;;4934219;29;20495;-76
2023/07/03 09:27:26;;;;;;;16.27;15.00;;;24.70;84.90;;;;;;4934677;29;20804;-76
2023/07/03 09:29:55;;;;;;;17.20;16.07;;;26.60;80.40;;;;;;4934659;29;20454;-76
2023/07/03 09:32:25;;;;;;;17.30;16.10;;;28.40;73.90;;;;;;4934511;29;20975;-75
2023/07/03 09:35:06;;;;;;;16.43;15.10;;;29.00;70.90;;;;;;4934133;29;20454;-76
2023/07/03 09:37:33;;;;;;;17.77;16.47;;;28.80;70.40;;;;;;4934425;29;20532;-76
2023/07/03 09:40:00;;;;;;;17.43;16.40;;;28.30;70.40;;;;;;4934308;29;20461;-76
2023/07/03 09:42:27;;;;;;;17.60;16.47;;;28.10;69.90;;;;;;4934165;29;20864;-76
2023/07/03 09:44:54;;;;;;;16.93;15.43;;;27.20;71.60;;;;;;4934106;29;21011;-76
2023/07/03 09:47:25;;;;;;;16.47;15.13;;;27.20;73.80;;;;;;4934129;29;20520;-76
2023/07/03 09:49:52;;;;;;;16.90;15.70;;;27.10;72.30;;;;;;4934009;29;20454;-76
2023/07/03 09:52:21;;;;;;;17.50;16.20;;;27.50;70.70;;;;;;4934237;29;20461;-76
2023/07/03 09:54:49;;;;;;;16.63;15.53;;;28.10;68.50;;;;;;4934416;29;20438;-76
2023/07/03 09:57:23;;;;;;;18.43;17.13;;;27.70;68.80;;;;;;4933939;29;20940;-75
2023/07/03 09:59:49;;;;;;;15.80;15.00;;;27.70;69.50;;;;;;4934159;29;20449;-76
2023/07/03 10:02:17;;;;;;;15.73;14.83;;;28.40;67.90;;;;;;4933758;29;20458;-77
2023/07/03 10:04:45;;;;;;;17.60;16.40;;;29.30;65.00;;;;;;4933737;29;20493;-76
2023/07/03 10:07:15;;;;;;;16.07;14.90;;;29.30;61.80;;;;;;4933853;29;20890;-76
2023/07/03 10:09:46;;;;;;;16.43;15.43;;;29.00;62.00;;;;;;4933853;29;20872;-76
2023/07/03 10:12:22;;;;;;;15.87;14.97;;;28.70;62.50;;;;;;4933755;29;20453;-76
2023/07/03 10:14:55;;;;;;;16.30;15.20;;;28.70;62.30;;;;;;4933311;29;20493;-81
2023/07/03 10:17:27;;;;;;;15.23;14.53;;;28.40;62.50;;;;;;4933634;29;20473;-76
2023/07/03 10:19:56;;;;;;;15.10;14.20;;;27.70;64.00;;;;;;4933676;29;20456;-76
2023/07/03 10:22:25;;;;;;;15.00;14.20;;;27.80;62.80;;;;;;4933746;29;20900;-76
2023/07/03 10:24:58;;;;;;;15.20;14.10;;;27.90;62.90;;;;;;4934039;29;21131;-77
2023/07/03 10:27:28;;;;;;;17.80;16.67;;;28.40;62.60;;;;;;4933631;29;20453;-75
2023/07/03 10:29:56;;;;;;;17.57;16.33;;;30.20;58.80;;;;;;4933704;29;20536;-76
2023/07/03 10:32:27;;;;;;;17.00;16.03;;;31.30;55.80;;;;;;4934609;29;21221;-76
2023/07/03 10:35:01;;;;;;;15.33;14.50;;;30.80;55.00;;;;;;4937085;29;20541;-76
2023/07/03 10:37:30;;;;;;;15.90;14.73;;;30.10;55.10;;;;;;4939267;29;20448;-77
2023/07/03 10:40:09;;;;;;;16.70;15.57;;;29.40;55.80;;;;;;4941008;29;20468;-76
2023/07/03 10:42:41;;;;;;;15.70;14.70;;;28.80;57.00;;;;;;4941284;29;20457;-75
2023/07/03 10:45:12;;;;;;;15.70;14.80;;;28.00;58.60;;;;;;4940494;29;20994;-76
2023/07/03 10:47:47;;;;;;;15.83;14.73;;;29.20;57.10;;;;;;4940195;29;20516;-75
2023/07/03 10:50:14;;;;;;;16.13;15.33;;;30.40;55.30;;;;;;4940115;29;20466;-76
2023/07/03 10:52:47;;;;;;;15.57;14.77;;;30.90;53.50;;;;;;4940268;29;20457;-76
2023/07/03 10:55:24;;;;;;;14.30;13.37;;;30.40;53.10;;;;;;4939967;29;20457;-75
2023/07/03 10:57:58;;;;;;;14.10;13.53;;;30.20;53.00;;;;;;4939777;29;20453;-75
2023/07/03 11:00:33;;;;;;;15.60;14.70;;;30.20;52.60;;;;;;4939808;29;20528;-76
2023/07/03 11:03:09;;;;;;;13.80;13.00;;;30.60;51.20;;;;;;4939760;29;20511;-76
2023/07/03 11:05:41;;;;;;;14.90;14.10;;;30.60;50.80;;;;;;4939831;29;20449;-75
2023/07/03 11:08:16;;;;;;;14.77;13.87;;;30.10;51.20;;;;;;4939772;29;20461;-76
2023/07/03 11:10:49;;;;;;;14.00;13.20;;;30.00;52.00;;;;;;4939830;29;20460;-76
2023/07/03 11:13:23;;;;;;;14.30;13.60;;;29.30;53.60;;;;;;4939898;29;20464;-75
2023/07/03 11:16:01;;;;;;;14.77;13.90;;;28.70;54.90;;;;;;4939625;29;20484;-75
2023/07/03 11:18:48;;;;;;;14.37;13.67;;;27.80;56.10;;;;;;4939808;29;20495;-76
2023/07/03 11:21:25;;;;;;;14.73;13.93;;;27.20;57.50;;;;;;4939705;29;20863;-75
2023/07/03 11:23:59;;;;;;;14.07;13.47;;;27.00;58.20;;;;;;4939344;29;21029;-75
2023/07/03 11:26:34;;;;;;;13.70;13.20;;;27.70;58.30;;;;;;4939512;29;20540;-75
2023/07/03 11:29:03;;;;;;;14.20;13.50;;;28.70;55.70;;;;;;4939301;29;20480;-75
2023/07/03 11:31:30;;;;;;;16.30;15.50;;;29.10;54.70;;;;;;4939598;29;20468;-76
2023/07/03 11:33:57;;;;;;;13.53;12.73;;;29.30;54.70;;;;;;4939472;29;20457;-75
2023/07/03 11:36:52;;;;;;;14.13;13.47;;;29.30;55.10;;;;;;4939383;29;20460;-75
2023/07/03 11:39:21;;;;;;;13.90;13.30;;;28.70;56.00;;;;;;4884493;29;20473;-75
2023/07/03 11:41:52;;;;;;;13.10;12.50;;;28.10;57.40;;;;;;4939375;29;20457;-75
2023/07/03 11:44:28;;;;;;;14.13;13.40;;;27.80;57.00;;;;;;4939003;29;20500;-76
2023/07/03 11:46:57;;;;;;;14.80;14.00;;;28.10;57.00;;;;;;4939367;29;20831;-76
2023/07/03 11:49:26;;;;;;;13.93;13.23;;;28.90;55.60;;;;;;4936993;29;20517;-75
2023/07/03 11:52:00;;;;;;;14.00;13.17;;;29.10;55.00;;;;;;4936311;29;20541;-75
2023/07/03 11:54:28;;;;;;;14.67;13.80;;;29.30;55.00;;;;;;4936110;29;20544;-75
2023/07/03 11:57:00;;;;;;;14.90;13.97;;;28.80;56.30;;;;;;4936329;29;20457;-75
2023/07/03 11:59:31;;;;;;;13.53;12.53;;;28.30;56.80;;;;;;4936254;29;20454;-75
2023/07/03 12:02:44;;;;;;;15.20;14.27;;;28.10;55.70;;;;;;4936050;29;20464;-75
2023/07/03 12:05:11;;;;;;;15.20;14.30;;;28.90;57.70;;;;;;4936074;29;20536;-75
2023/07/03 12:07:50;;;;;;;14.67;13.80;;;29.40;57.90;;;;;;4936201;29;20450;-75
2023/07/03 12:10:40;;;;;;;15.23;14.07;;;28.80;58.60;;;;;;4935986;29;20489;-75
2023/07/03 12:13:33;;;;;;;15.77;14.93;;;28.50;59.60;;;;;;4929555;29;20838;-75
2023/07/03 12:16:02;;;;;;;14.80;13.90;;;28.60;60.20;;;;;;4935597;29;20485;-76
2023/07/03 12:18:29;;;;;;;14.00;13.30;;;28.60;60.00;;;;;;4935972;29;20480;-75
2023/07/03 12:20:58;;;;;;;15.80;14.80;;;29.20;59.70;;;;;;4935640;29;20460;-75
2023/07/03 12:23:33;;;;;;;15.67;14.80;;;30.00;57.30;;;;;;4935719;29;20544;-75
2023/07/03 12:26:02;;;;;;;15.73;14.73;;;30.00;56.30;;;;;;4935489;29;21022;-75
2023/07/03 12:28:31;;;;;;;14.70;13.80;;;28.60;58.80;;;;;;4935639;29;20481;-75
2023/07/03 12:31:16;;;;;;;17.23;15.97;;;28.10;60.00;;;;;;4935647;29;20457;-75
2023/07/03 12:33:51;;;;;;;15.07;14.07;;;28.10;59.90;;;;;;4935502;29;20457;-76
2023/07/03 12:36:26;;;;;;;15.37;14.30;;;28.20;61.10;;;;;;4935393;29;21042;-75
2023/07/03 12:38:54;;;;;;;15.70;14.47;;;28.20;60.40;;;;;;4935338;29;20452;-76
2023/07/03 12:41:29;;;;;;;15.77;14.87;;;28.50;60.20;;;;;;4935179;29;20955;-76